Flight Track Log - Related Links

Times and Time Zones

All times are in EDT time to prevent confusion due to time zone crossing. See the TYR844 flight status page for this flight to view local times or setup timezone preferences in your user account.

Time Position Orientation Groundspeed Altitude Reporting Facility
EDT Latitude Longitude Course Direction KTS MPH feet Rate Location/Type
Sun 10:52:00 PM 43.3213 18.8993 343° North  Level Estimated
Sun 10:53:00 PM 43.4215 18.8546 342° North  Level Estimated
Sun 10:54:00 PM 43.5216 18.8098 342° North  Level Estimated
Sun 10:55:00 PM 43.6218 18.7649 342° North  Level Estimated
Sun 10:56:00 PM 43.7219 18.7198 342° North  Level Estimated
Sun 10:57:00 PM 43.8220 18.6746 342° North  Level Estimated
Sun 10:58:00 PM 43.9221 18.6292 342° North  Level Estimated
Sun 10:59:00 PM 44.0222 18.5836 342° North  Level Estimated
Sun 11:00:00 PM 44.1222 18.5379 342° North  Level Estimated
Sun 11:01:00 PM 44.2223 18.4921 342° North  Level Estimated
Sun 11:02:00 PM 44.3223 18.4461 342° North  Level Estimated
Sun 11:03:00 PM 44.4223 18.3999 342° North  Level Estimated
Sun 11:04:00 PM 44.5223 18.3536 342° North  Level Estimated
Sun 11:05:00 PM 44.6222 18.3071 342° North  Level Estimated
Sun 11:06:00 PM 44.7222 18.2605 342° North  Level Estimated
Sun 11:07:00 PM 44.8221 18.2137 342° North  Level Estimated
Sun 11:08:00 PM 44.9220 18.1667 342° North  Level Estimated
Sun 11:09:00 PM 45.0219 18.1196 342° North  Level Estimated
Sun 11:10:00 PM 45.1218 18.0723 342° North  Level Estimated
Sun 11:11:00 PM 45.2216 18.0248 341° North  Level Estimated
Sun 11:12:00 PM 45.3214 17.9772 341° North  Level Estimated
Sun 11:13:00 PM 45.4213 17.9294 341° North  Level Estimated
Sun 11:14:00 PM 45.5210 17.8814 341° North  Level Estimated
Sun 11:15:00 PM 45.6208 17.8333 341° North  Level Estimated
Sun 11:16:00 PM 45.7206 17.7850 341° North  Level Estimated
Sun 11:17:00 PM 45.8203 17.7365 341° North  Level Estimated
Sun 11:18:00 PM 45.9200 17.6879 341° North  Level Estimated
Sun 11:19:00 PM 46.0197 17.6390 341° North  Level Estimated
Sun 11:20:00 PM 46.1194 17.5900 341° North  Level Estimated
Sun 11:21:00 PM 46.2190 17.5408 341° North  Level Estimated
Sun 11:22:00 PM 46.3186 17.4915 341° North  Level Estimated
Sun 11:23:00 PM 46.4182 17.4419 341° North  Level Estimated
Sun 11:24:00 PM 46.5178 17.3922 341° North  Level Estimated
Sun 11:25:00 PM 46.6174 17.3423 341° North  Level Estimated
Sun 11:26:00 PM 46.7169 17.2922 341° North  Level Estimated
Sun 11:27:00 PM 46.8164 17.2419 341° North  Level Estimated
Sun 11:28:00 PM 46.9159 17.1915 341° North  Level Estimated
Sun 11:29:00 PM 47.0154 17.1408 341° North  Level Estimated
Sun 11:30:00 PM 47.1148 17.0900 341° North  Level Estimated
Sun 11:31:00 PM 47.2142 17.0390 341° North  Level Estimated
Sun 11:32:00 PM 47.3136 16.9877 341° North  Level Estimated
Sun 11:33:00 PM 47.4130 16.9363 341° North  Level Estimated
Sun 11:34:00 PM 47.5124 16.8847 341° North  Level Estimated
Sun 11:35:00 PM 47.6117 16.8329 341° North  Level Estimated
Sun 11:36:00 PM 47.7110 16.7809 341° North  Level Estimated
Sun 11:37:00 PM 47.8103 16.7287 341° North  Level Estimated
Sun 11:38:00 PM 47.9096 16.6763 341° North  Level Estimated
Sun 11:39:00 PM 48.0088 16.6237 340° North  Level Estimated
Sun 11:40:00 PM 48.1080 16.5709 340° North  Level Estimated
Sun 11:41:00 PM 48.1103 16.5697 340° North  Level Estimated
Sun 11:42:00 PM 48.1103 16.5697 146° Southeast  Level Estimated
Sun 11:43:00 PM 48.1103 16.5697 146° Southeast  Level Estimated
Sun 11:44:00 PM 48.1103 16.5697 146° Southeast  Level Estimated
Sun 11:45:00 PM 48.1103 16.5697 146° Southeast  Level Estimated
Sun 11:46:00 PM 48.1103 16.5697 146° Southeast  Level Estimated
Sun 11:47:00 PM 48.1103 16.5697 146° Southeast  Level Estimated
Sun 11:48:00 PM 48.1103 16.5697 146° Southeast  Level Estimated
Sun 11:49:00 PM 48.1103 16.5697 146° Southeast  Level Estimated
Sun 11:50:00 PM 48.1103 16.5697 146° Southeast  Level Estimated
Sun 11:51:00 PM 48.1103 16.5697 146° Southeast  Level Estimated
Sun 11:52:00 PM 48.1103 16.5697 146° Southeast  Level Estimated

Login

Don't have an account? Register now (free) for customized features, flight alerts, and more!